Station: Portable Rfsnsw01  

  Atmospheric Gas Attenuation - ITU Rec 676-11   ----------------- dB/100km -----------------
Date Time Temp RH % AH g/m3 Dew Point Wind Direction Speed kph Gust kph Barometer mB Rainfall Since 9am 24GHz 47GHz 76GHz 122GHz 134GHz 241GHz
08/05 12:20 18.8 40 6.44 5.1 11 17 1013.1 0 14.8 21.3 29.6 77.3 66.7 227.9
08/05 12:10 18.9 41 6.64 5.3 11 15 1013.1 0 15.2 21.6 30.3 79.1 68.9 235.7
08/05 12:00 18.7 40 6.4 4.9 11 15 1013.1 0 14.7 21.3 29.5 77.0 66.3 226.6
08/05 11:50 18.6 41 6.52 5.2 11 15 1013.1 0 15.0 21.5 30.0 78.2 67.8 231.7
08/05 11:40 18.4 42 6.61 5.5 11 13 1013.1 0 15.2 21.7 30.3 79.3 69.0 235.9
08/05 11:30 18.1 41 6.33 4.9 9 15 1013.1 0 14.6 21.3 29.5 76.9 66.0 225.5
08/05 11:20 17.8 43 6.53 5 9 11 1013.1 0 15.0 21.7 30.3 79.1 68.6 234.4
08/05 11:10 17.6 44 6.6 5.2 11 15 1013.1 0 15.2 21.8 30.6 80.0 69.5 237.8
08/05 11:00 17.1 44 6.4 4.7 13 13 1013.1 0 14.8 21.7 30.1 78.6 67.6 231.1
08/05 10:50 17 44 6.37 4.7 11 13 1013.1 0 14.7 21.7 30.0 78.4 67.4 230.2
08/05 10:40 16.7 44 6.25 4.6 9 13 1013.1 0 14.5 21.6 29.7 77.5 66.2 226.1
08/05 10:30 16.2 46 6.34 4.8 11 13 1013.1 0 14.7 21.8 30.2 78.9 67.7 231.2
08/05 10:20 16.1 45 6.17 4.4 11 13 1013.1 0 14.3 21.6 29.6 77.3 65.8 224.5
08/05 10:10 15.7 48 6.42 4.8 11 13 1013.1 0 14.9 22.0 30.7 80.1 69.1 236.0
08/05 10:00 15.6 50 6.65 5.2 9 11 1013.1 0 15.4 22.4 31.5 82.4 71.9 245.9
08/05 09:50 15.4 47 6.17 4.2 7 9 1013.1 0 14.4 21.7 29.9 78.0 66.4 226.4
08/05 09:40 15.2 49 6.36 4.5 7 11 1013.1 0 14.8 22.1 30.7 80.0 68.8 234.9
08/05 09:30 14.7 49 6.17 4.3 7 9 1013.1 0 14.4 21.9 30.2 78.7 67.0 228.4
08/05 09:20 14.4 48 5.93 3.5 7 11 1013.1 0 13.9 21.6 29.4 76.7 64.4 219.3
08/05 09:10 14 51 6.15 4.2 7 9 1013.1 0 14.4 22.1 30.3 79.2 67.3 229.6
08/05 09:00 13.9 49 5.87 3.5 7 9 1013.1 0 13.8 21.7 29.4 76.6 64.1 218.1
08/05 08:50 13.4 52 6.05 3.9 7 9 1013.1 0 14.2 22.1 30.2 78.8 66.6 227.0
08/05 08:40 12.8 54 6.05 3.9 6 6 1013.1 0 14.2 22.2 30.4 79.4 67.1 228.7
08/05 08:30 12.3 55 5.97 3.7 7 7 1013.1 0 14.0 22.2 30.3 79.1 66.6 226.7
08/05 08:20 11.9 56 5.93 3.4 7 11 1013.1 0 14.0 22.2 30.3 79.1 66.4 226.2
08/05 08:10 11.5 56 5.79 3.1 6 7 1013.1 0 13.7 22.1 29.9 78.1 65.0 221.3
08/05 08:00 10.7 57 5.6 2.7 6 7 1013.1 0 13.3 22.0 29.5 77.0 63.4 215.3
08/05 07:50 10 60 5.64 2.6 6 7 1013.1 0 13.4 22.3 29.9 78.1 64.4 218.9
08/05 07:40 9.2 61 5.45 2.1 6 9 1013.1 0 13.0 22.2 29.5 76.9 62.7 212.8
08/05 07:30 8.5 63 5.38 1.9 7 9 1013.1 0 12.9 22.2 29.5 76.9 62.4 211.6
08/05 07:20 7.9 64 5.26 1.6 7 7 1013.1 0 12.7 22.2 29.3 76.3 61.4 207.9
08/05 07:10 7.6 65 5.24 1.5 6 7 1013.1 0 12.7 22.2 29.3 76.4 61.4 207.8
08/05 07:00 7.4 66 5.25 1.4 6 7 1013.1 0 12.7 22.3 29.4 76.7 61.6 208.7
08/05 06:50 7.4 66 5.25 1.4 6 9 1013.1 0 12.7 22.3 29.4 76.7 61.6 208.7
08/05 06:40 7.4 65 5.17 1.3 7 9 1013.1 0 12.5 22.2 29.1 75.8 60.6 205.2
08/05 06:30 7.4 65 5.17 1.2 6 7 1013.1 0 12.5 22.2 29.1 75.8 60.6 205.2
08/05 06:20 7.5 65 5.21 1.3 7 7 1013.1 0 12.6 22.2 29.2 76.2 61.1 206.7
08/05 06:10 7.4 64 5.09 1.1 6 7 1013.1 0 12.3 22.1 28.8 75.0 59.6 201.7
08/05 06:00 7.3 65 5.14 1.1 6 7 1013.1 0 12.5 22.2 29.0 75.6 60.3 204.1
08/05 05:50 7.1 64 4.99 0.9 6 7 1013.1 0 12.1 22.0 28.5 74.3 58.6 198.0
08/05 05:40 7 65 5.04 0.9 6 7 1013.1 0 12.2 22.1 28.8 74.9 59.3 200.5
08/05 05:30 7.1 64 4.99 0.9 6 7 1013.1 0 12.1 22.0 28.5 74.3 58.6 198.0
08/05 05:20 7 64 4.96 0.6 6 6 1013.1 0 12.1 22.0 28.5 74.1 58.3 197.0
08/05 05:10 6.8 64 4.9 0.6 6 6 1013.1 0 12.0 21.9 28.3 73.7 57.7 194.8
08/05 05:00 6.8 64 4.9 0.5 4 4 1013.1 0 12.0 21.9 28.3 73.7 57.7 194.8
08/05 04:50 7 63 4.88 0.5 4 6 1013.1 0 11.9 21.8 28.2 73.3 57.3 193.5
08/05 04:40 7.1 62 4.84 0.3 6 6 1013.1 0 11.8 21.8 28.0 72.8 56.7 191.5
08/05 04:30 7 62 4.81 0.3 4 6 1013.1 0 11.8 21.7 27.9 72.6 56.4 190.4
08/05 04:20 7.1 61 4.76 0.1 6 7 1013.1 0 11.6 21.6 27.7 72.0 55.7 188.0
08/05 04:10 7.1 60 4.68 0 6 6 1013.1 0 11.5 21.5 27.4 71.2 54.7 184.5
08/05 04:00 7 61 4.73 0 6 6 1013.1 0 11.6 21.6 27.6 71.8 55.4 186.9
08/05 03:50 6.8 61 4.67 -0.1 4 6 1013.1 0 11.5 21.6 27.4 71.4 54.8 184.8
08/05 03:40 6.9 61 4.7 -0.1 4 6 1013.1 0 11.5 21.6 27.5 71.6 55.1 185.8
08/05 03:30 6.8 60 4.59 -0.3 4 6 1013.1 0 11.3 21.4 27.1 70.6 53.8 181.3
08/05 03:20 6.6 60 4.53 -0.5 4 6 1013.1 0 11.2 21.4 27.0 70.1 53.2 179.1
08/05 03:10 6.5 61 4.58 -0.5 4 4 1013.1 0 11.3 21.5 27.2 70.7 53.9 181.5
08/05 03:00 6.6 60 4.53 -0.5 4 4 1013.1 0 11.2 21.4 27.0 70.1 53.2 179.1
08/05 02:50 6.6 60 4.53 -0.5 4 6 1013.1 0 11.2 21.4 27.0 70.1 53.2 179.1
08/05 02:40 6.7 59 4.49 -0.6 4 4 1013.1 0 11.1 21.3 26.8 69.6 52.7 177.2
08/05 02:30 6.7 59 4.49 -0.6 4 4 1013.1 0 11.1 21.3 26.8 69.6 52.7 177.2
08/05 02:20 6.8 58 4.44 -0.9 4 6 1013.1 0 11.0 21.2 26.6 69.1 52.0 174.8
08/05 02:10 6.8 58 4.44 -0.9 4 7 1013.1 0 11.0 21.2 26.6 69.1 52.0 174.8
08/05 02:00 6.7 58 4.41 -0.9 4 6 1013.1 0 10.9 21.2 26.5 68.9 51.7 173.7
08/05 01:50 6.8 58 4.44 -0.9 4 4 1013.1 0 11.0 21.2 26.6 69.1 52.0 174.8
08/05 01:40 6.8 57 4.36 -1 4 4 1013.1 0 10.8 21.1 26.3 68.3 51.0 171.4
08/05 01:30 6.7 58 4.41 -0.9 4 4 1013.1 0 10.9 21.2 26.5 68.9 51.7 173.7
08/05 01:20 6.7 58 4.41 -0.9 4 4 1013.1 0 10.9 21.2 26.5 68.9 51.7 173.7
08/05 01:10 7 57 4.42 -0.9 4 4 1013.1 0 10.9 21.1 26.4 68.7 51.6 173.5
08/05 01:00 7.1 56 4.37 -1 4 4 1013.1 0 10.8 21.0 26.2 68.1 50.9 171.1
08/05 00:50 7.2 55 4.32 -1.1 4 4 1013.1 0 10.7 20.9 26.0 67.5 50.3 168.8
08/05 00:40 7 57 4.42 -1 4 4 1013.1 0 10.9 21.1 26.4 68.7 51.6 173.5
08/05 00:30 7.2 55 4.32 -1.2 4 4 1013.1 0 10.7 20.9 26.0 67.5 50.3 168.8
08/05 00:10 7.1 55 4.29 -1.2 6 6 1013.1 0 10.6 20.9 25.9 67.3 50.0 167.7
08/05 00:00 7 56 4.34 -1.2 4 6 1013.1 0 10.8 21.0 26.1 67.9 50.6 170.1
07/05 23:50 7.1 56 4.37 -1.1 2 4 1013.1 0 10.8 21.0 26.2 68.1 50.9 171.1
07/05 23:40 7.3 55 4.35 -1.2 2 4 1013.1 0 10.8 21.0 26.1 67.7 50.6 169.9
07/05 23:30 7.6 54 4.35 -1 4 6 1013.1 0 10.8 20.9 26.0 67.5 50.4 169.2
07/05 23:20 7.8 53 4.33 -1 6 7 1013.1 0 10.7 20.8 25.9 67.1 50.0 168.0
07/05 23:10 8.1 52 4.33 -1.2 6 7 1013.1 0 10.7 20.8 25.8 66.9 49.8 167.3
07/05 23:00 8.2 51 4.27 -1.3 6 9 1013.1 0 10.6 20.6 25.5 66.2 49.0 164.6
07/05 22:50 8.4 50 4.24 -1.3 7 7 1013.1 0 10.5 20.6 25.3 65.8 48.6 163.0
07/05 22:40 8.3 50 4.22 -1.5 7 9 1013.1 0 10.5 20.6 25.3 65.7 48.4 162.3
07/05 22:30 8.1 51 4.25 -1.5 6 6 1013.1 0 10.5 20.6 25.5 66.1 48.9 164.0
07/05 22:20 8.1 51 4.25 -1.3 6 7 1013.1 0 10.5 20.6 25.5 66.1 48.9 164.0
07/05 22:10 8.4 50 4.24 -1.3 4 6 1013.1 0 10.5 20.6 25.3 65.8 48.6 163.0
07/05 22:00 8.3 49 4.13 -1.6 7 11 1013.1 0 10.3 20.4 25.0 64.8 47.3 158.6
07/05 21:50 8.1 51 4.25 -1.5 7 9 1013.1 0 10.5 20.6 25.5 66.1 48.9 164.0
07/05 21:40 7.9 52 4.27 -1.4 6 7 1013.1 0 10.6 20.7 25.6 66.5 49.2 165.2
07/05 21:30 8 52 4.3 -1.3 6 7 1013.1 0 10.6 20.7 25.7 66.7 49.5 166.3
07/05 21:20 8.2 51 4.27 -1.4 7 11 1013.1 0 10.6 20.6 25.5 66.2 49.0 164.6
07/05 21:10 8 51 4.22 -1.5 7 9 1013.1 0 10.5 20.6 25.4 65.9 48.6 162.9
07/05 21:00 8.1 51 4.25 -1.5 7 9 1013.1 0 10.5 20.6 25.5 66.1 48.9 164.0
07/05 20:50 8.5 48 4.1 -1.7 7 9 1013.1 0 10.2 20.3 24.8 64.3 46.8 156.9
07/05 20:40 9 47 4.14 -1.7 6 7 1013.1 0 10.3 20.3 24.8 64.3 47.0 157.6
07/05 20:30 9.6 44 4.03 -2 7 11 1013.1 0 10.0 20.0 24.2 62.8 45.4 152.0
07/05 20:20 9.7 43 3.97 -2.2 9 13 1013.1 0 9.9 19.9 24.0 62.2 44.6 149.3
07/05 20:10 9.9 42 3.92 -2.2 11 13 1013.1 0 9.8 19.8 23.8 61.6 44.0 146.9
07/05 20:00 10.2 41 3.9 -2.4 13 17 1013.1 0 9.7 19.7 23.6 61.1 43.6 145.6
07/05 19:50 10.2 41 3.9 -2.3 13 15 1013.1 0 9.7 19.7 23.6 61.1 43.6 145.6
07/05 19:40 10.2 41 3.9 -2.3 13 17 1013.1 0 9.7 19.7 23.6 61.1 43.6 145.6

Last Refresh: 08-May-2026 12:10:21

Bureau of Meteorology